Aeroporto :
LOGIN :

Iscrizione | Disclaimer

   EN    FR    IT 

 










Sommario :    VFR   VFR Marginale   IFR   IFR Intensivo   IFR Molto Intensivo
Visibilità : 
Base nubi : 
>= 8 km
>= 3000ft
5 / 8 km
1000 / 3000 ft
1500m / 5 km
500 / 1000 ft
800 / 1500m
200 / 500 ft
< 800m
< 200 ft
Simboli :   Temporali  Nebbia  Neve Forte  Precipitazioni Forti  Vento > 20 kt
SIGMETs :   Varie  Temporali  Ghiacco  Turbolenza  Onda orograficha  Ceneri Vulcaniche






- Altitudine del aeroporto : 220 ft
- Codice IATA : CWL


EGFF - Cardiff Rhoose

ULTIMO METAR :
  • 232350Z AUTO 21011KT 9999 SCT049 10/06 Q1008

METARs OBSOLETI :
  • 232320Z AUTO 21009KT 9999 NCD 10/07 Q1008
  • 232250Z AUTO 22012KT 9999 NCD 10/07 Q1008
  • 232220Z AUTO 22010KT 9999 NCD 10/07 Q1009
  • 232150Z AUTO 22011KT 9999 NCD 10/07 Q1009
  • 232120Z AUTO 22010KT 9999 NCD 10/07 Q1009
  • 232050Z AUTO 22009KT 9999 FEW034 SCT041 10/07 Q1009

TAF TAF EGFF
Valido dal 24 a 00 ore il 25 a 00 ore UTC


232306Z 2400/2424 19010KT 9999 SCT030
TEMPO 2401/2405 20015G27KT
BECMG 2405/2408 20020G30KT
PROB30
TEMPO 2406/2410 7000 RA BKN014
TEMPO 2410/2419 6000 RA BKN014
PROB30
TEMPO 2411/2414 20024G40KT 3000 +SHRA
BECMG 2413/2416 24014KT
PROB30
TEMPO 2416/2424 25017G27KT
ATIS : +44 1446 729 319



MetMap, La meteo Aeronautica in un colpo d'occhio ! - Copyright ORBIFLY Dicembre 2007 - Disclaimer

ORBIFLY MET'MAP TEAM :

Programmazione e sviluppo : Alexandra Zaïnal
Concezione : Baudouin d'Aumeries
Aiuto per la programmazione : Marc-Olivier Méhu
Supporto tecnico e logistico : Manuel Goepfert
Aiuto per la traduzione : Arnaldo La Scala

Contatto : metmap@orbifly.com




FONTI E CREDITI :

   NOAA